Time;durP1;ratioP1;P1;durP2;ratioP2;P2;SDS_P1;SDS_P2;PMS_P1;PMS_P2;Temp;Humidity;BMP_temperature;BMP_pressure;BME280_temperature;BME280_humidity;BME280_pressure;Samples;Min_cycle;Max_cycle;Signal;HPM_P1;HPM_P2
2021/06/06 00:00:27;;;;;;;16.38;12.20;;;12.40;99.90;;;;;;5025049;28;20022;-71
2021/06/06 00:02:55;;;;;;;17.30;10.55;;;12.40;99.90;;;;;;5029019;28;20036;-71
2021/06/06 00:05:23;;;;;;;20.17;11.63;;;12.40;99.90;;;;;;5027152;28;20120;-71
2021/06/06 00:07:49;;;;;;;17.23;11.95;;;12.40;99.90;;;;;;5032601;28;20108;-71
2021/06/06 00:10:15;;;;;;;14.90;12.18;;;12.30;99.90;;;;;;5028979;28;20116;-71
2021/06/06 00:12:41;;;;;;;18.48;12.10;;;12.30;99.90;;;;;;5026888;28;20475;-72
2021/06/06 00:15:13;;;;;;;14.77;11.00;;;12.30;99.90;;;;;;5028280;28;20070;-71
2021/06/06 00:17:39;;;;;;;18.05;10.77;;;12.30;99.90;;;;;;5029872;28;20395;-71
2021/06/06 00:20:09;;;;;;;15.05;10.65;;;12.30;99.90;;;;;;5031049;28;20028;-71
2021/06/06 00:22:35;;;;;;;13.82;10.13;;;12.20;99.90;;;;;;5030659;28;20053;-71
2021/06/06 00:25:01;;;;;;;14.93;10.77;;;12.20;99.90;;;;;;5028961;28;20082;-71
2021/06/06 00:27:26;;;;;;;12.98;9.95;;;12.20;99.90;;;;;;5025739;28;20017;-71
2021/06/06 00:29:52;;;;;;;13.52;11.13;;;12.20;99.90;;;;;;5028111;28;20569;-71
2021/06/06 00:32:19;;;;;;;12.80;9.60;;;12.10;99.90;;;;;;5028344;28;20494;-71
2021/06/06 00:34:45;;;;;;;12.90;9.05;;;12.10;99.90;;;;;;5030954;28;20087;-71
2021/06/06 00:37:12;;;;;;;11.43;8.60;;;12.10;99.90;;;;;;5028427;28;20030;-71
2021/06/06 00:39:37;;;;;;;11.07;9.18;;;12.10;99.90;;;;;;5028555;28;20490;-71
2021/06/06 00:42:04;;;;;;;11.50;9.45;;;12.10;99.90;;;;;;5028231;28;20036;-72
2021/06/06 00:44:30;;;;;;;10.63;8.93;;;12.10;99.90;;;;;;5025978;28;20045;-72
2021/06/06 00:46:56;;;;;;;11.80;9.45;;;12.00;99.90;;;;;;5029599;28;20033;-72
2021/06/06 00:49:22;;;;;;;12.15;9.65;;;12.00;99.90;;;;;;5027087;28;20025;-72
2021/06/06 00:51:55;;;;;;;13.07;9.30;;;12.00;99.90;;;;;;5026200;28;20034;-71
2021/06/06 00:54:27;;;;;;;11.73;8.40;;;11.90;99.90;;;;;;5026072;28;20092;-71
2021/06/06 00:57:16;;;;;;;10.68;9.57;;;11.90;99.90;;;;;;5028833;28;20390;-71
2021/06/06 00:59:48;;;;;;;8.80;7.90;;;11.90;99.90;;;;;;5024302;28;20038;-71
2021/06/06 01:02:14;;;;;;;13.45;9.77;;;11.90;99.90;;;;;;5026436;28;20033;-71
2021/06/06 01:04:42;;;;;;;13.90;9.65;;;11.80;99.90;;;;;;5029254;28;20701;-71
2021/06/06 01:07:08;;;;;;;10.38;8.55;;;11.70;99.90;;;;;;5027179;28;20102;-71
2021/06/06 01:09:34;;;;;;;8.00;6.93;;;11.70;99.90;;;;;;5025832;28;20537;-71
2021/06/06 01:12:19;;;;;;;9.40;7.38;;;11.70;99.90;;;;;;5026714;28;20029;-71
2021/06/06 01:15:07;;;;;;;6.95;6.25;;;11.60;99.90;;;;;;5029820;28;20021;-71
2021/06/06 01:17:42;;;;;;;8.18;7.38;;;11.60;99.90;;;;;;5015754;28;20030;-71
2021/06/06 01:20:29;;;;;;;9.05;7.57;;;11.60;99.90;;;;;;5033976;28;20026;-71
2021/06/06 01:23:30;;;;;;;11.23;9.13;;;11.60;99.90;;;;;;5032219;28;20048;-71
2021/06/06 01:26:01;;;;;;;10.75;8.23;;;11.60;99.90;;;;;;4974612;28;20042;-72
2021/06/06 01:28:33;;;;;;;12.45;9.10;;;11.60;99.90;;;;;;4975210;28;20045;-72
2021/06/06 01:31:01;;;;;;;10.50;8.77;;;11.60;99.90;;;;;;4974514;28;20058;-71
2021/06/06 01:33:37;;;;;;;12.60;8.93;;;11.60;99.90;;;;;;4974484;28;20022;-72
2021/06/06 01:36:09;;;;;;;10.50;9.10;;;11.50;99.90;;;;;;4963004;28;20479;-72
2021/06/06 01:38:40;;;;;;;11.30;7.68;;;11.50;99.90;;;;;;4972915;28;20381;-72
2021/06/06 01:41:15;;;;;;;10.38;8.68;;;11.40;99.90;;;;;;4974507;28;20093;-72
2021/06/06 01:43:47;;;;;;;10.32;8.07;;;11.40;99.90;;;;;;4973375;28;20532;-72
2021/06/06 01:46:17;;;;;;;9.65;7.63;;;11.40;99.90;;;;;;4972643;28;20107;-72
2021/06/06 01:48:45;;;;;;;11.65;8.88;;;11.40;99.90;;;;;;4974487;28;20027;-72
2021/06/06 01:51:31;;;;;;;14.10;9.85;;;11.40;99.90;;;;;;4974748;28;20488;-72
2021/06/06 01:53:57;;;;;;;11.05;8.82;;;11.40;99.90;;;;;;4973837;28;20574;-72
2021/06/06 01:56:27;;;;;;;11.57;9.52;;;11.20;99.90;;;;;;4973132;28;20152;-72
2021/06/06 01:58:59;;;;;;;10.82;8.52;;;11.10;99.90;;;;;;4973355;28;20400;-71
2021/06/06 02:01:26;;;;;;;12.43;9.10;;;11.00;99.90;;;;;;4975671;28;20598;-71
2021/06/06 02:03:54;;;;;;;10.02;8.43;;;11.10;99.90;;;;;;5025151;28;20046;-71
2021/06/06 02:06:23;;;;;;;11.60;8.70;;;11.10;99.90;;;;;;5031238;28;20033;-72
2021/06/06 02:08:49;;;;;;;13.18;8.38;;;11.10;99.90;;;;;;5030126;28;20043;-72
2021/06/06 02:11:28;;;;;;;10.80;8.40;;;11.00;99.90;;;;;;5032442;28;20037;-72
2021/06/06 02:13:59;;;;;;;9.68;8.43;;;11.00;99.90;;;;;;5029732;28;20025;-72
2021/06/06 02:16:29;;;;;;;10.43;8.43;;;11.10;99.90;;;;;;5032685;28;20030;-71
2021/06/06 02:18:54;;;;;;;10.65;8.88;;;11.10;99.90;;;;;;5030771;28;20052;-72
2021/06/06 02:21:22;;;;;;;12.13;9.25;;;11.10;99.90;;;;;;5028053;28;20498;-72
2021/06/06 02:23:49;;;;;;;9.48;7.65;;;11.00;99.90;;;;;;5027621;28;20040;-71
2021/06/06 02:26:36;;;;;;;11.68;7.38;;;11.10;99.90;;;;;;5030107;28;20543;-71
2021/06/06 02:29:16;;;;;;;9.45;7.60;;;11.00;99.90;;;;;;5029372;28;20033;-71
2021/06/06 02:32:02;;;;;;;11.80;8.15;;;10.90;99.90;;;;;;5032205;28;20064;-72
2021/06/06 02:35:09;;;;;;;8.27;7.25;;;10.90;99.90;;;;;;5030647;28;20030;-72
2021/06/06 02:37:52;;;;;;;8.63;7.70;;;11.00;99.90;;;;;;5031976;28;20437;-72
2021/06/06 02:40:29;;;;;;;8.00;6.60;;;11.00;99.90;;;;;;5027996;28;20482;-71
2021/06/06 02:42:59;;;;;;;10.90;7.70;;;11.00;99.90;;;;;;5026731;28;20056;-72
2021/06/06 02:45:28;;;;;;;9.77;8.13;;;11.10;99.90;;;;;;5027298;28;20030;-72
2021/06/06 02:47:59;;;;;;;8.40;7.53;;;11.10;99.90;;;;;;5027751;28;20048;-71
2021/06/06 02:50:38;;;;;;;12.63;8.05;;;11.10;99.90;;;;;;5027363;28;20029;-71
2021/06/06 02:53:16;;;;;;;12.35;8.43;;;11.10;99.90;;;;;;5030884;28;20017;-71
2021/06/06 02:55:56;;;;;;;12.32;8.70;;;11.20;99.90;;;;;;5031524;28;20048;-71
2021/06/06 02:58:47;;;;;;;9.10;8.20;;;11.20;99.90;;;;;;5029108;28;20112;-71
2021/06/06 03:01:39;;;;;;;11.52;8.70;;;11.20;99.90;;;;;;5024201;28;20041;-72
2021/06/06 03:04:08;;;;;;;9.57;7.70;;;11.20;99.90;;;;;;5024319;28;20152;-72
2021/06/06 03:06:45;;;;;;;10.00;8.93;;;11.40;99.90;;;;;;5027697;28;20382;-72
2021/06/06 03:09:12;;;;;;;10.38;7.65;;;11.30;99.90;;;;;;5029279;28;20014;-71
2021/06/06 03:11:41;;;;;;;11.93;8.93;;;11.30;99.90;;;;;;5026465;28;20025;-71
2021/06/06 03:14:10;;;;;;;10.10;8.68;;;11.40;99.90;;;;;;5030123;28;20044;-71
2021/06/06 03:16:52;;;;;;;10.57;7.80;;;11.40;99.90;;;;;;5029833;28;20030;-72
2021/06/06 03:19:18;;;;;;;9.32;8.43;;;11.80;99.90;;;;;;5027336;28;20025;-72
2021/06/06 03:21:46;;;;;;;9.57;7.88;;;12.20;99.90;;;;;;5026731;28;20053;-71
2021/06/06 03:24:23;;;;;;;14.32;8.10;;;12.60;98.80;;;;;;5029210;28;20033;-72
2021/06/06 03:26:50;;;;;;;13.23;8.43;;;12.80;98.10;;;;;;5016798;28;20039;-72
2021/06/06 03:29:21;;;;;;;9.50;8.48;;;12.90;98.10;;;;;;5030162;28;20034;-72
2021/06/06 03:31:57;;;;;;;9.82;7.30;;;12.90;98.00;;;;;;5033042;28;20087;-72
2021/06/06 03:34:23;;;;;;;12.15;8.15;;;13.00;97.80;;;;;;5029795;28;20025;-72
2021/06/06 03:36:48;;;;;;;10.70;8.45;;;13.10;97.50;;;;;;5030979;28;20364;-72
2021/06/06 03:39:18;;;;;;;11.70;7.43;;;13.20;97.20;;;;;;5029015;28;20413;-72
2021/06/06 03:41:44;;;;;;;9.02;7.60;;;13.10;97.20;;;;;;5030454;28;20029;-72
2021/06/06 03:44:10;;;;;;;8.32;6.80;;;13.10;97.40;;;;;;5029769;28;20052;-72
2021/06/06 03:46:39;;;;;;;8.63;7.82;;;13.10;97.90;;;;;;5031327;28;20025;-72
2021/06/06 03:49:06;;;;;;;7.65;6.75;;;13.20;98.40;;;;;;5029171;28;20502;-72
2021/06/06 03:51:32;;;;;;;8.40;7.60;;;13.30;98.60;;;;;;5029013;28;20114;-72
2021/06/06 03:53:58;;;;;;;7.80;6.78;;;13.70;98.40;;;;;;5029683;28;20029;-72
2021/06/06 03:56:24;;;;;;;9.45;7.63;;;14.40;97.40;;;;;;5028388;28;20052;-72
2021/06/06 03:58:50;;;;;;;9.23;7.32;;;15.30;96.10;;;;;;5032870;28;20024;-71
2021/06/06 04:01:17;;;;;;;9.55;7.28;;;16.20;94.20;;;;;;5029221;28;20030;-71
2021/06/06 04:03:43;;;;;;;8.25;7.43;;;16.90;92.80;;;;;;5028606;28;20048;-71
2021/06/06 04:06:08;;;;;;;9.82;7.05;;;17.70;91.70;;;;;;5029965;28;20412;-72
2021/06/06 04:08:34;;;;;;;11.38;7.78;;;18.40;90.10;;;;;;5028539;28;20030;-72
2021/06/06 04:11:01;;;;;;;8.90;7.10;;;18.70;88.90;;;;;;5031099;28;20034;-72
2021/06/06 04:13:26;;;;;;;7.55;6.68;;;19.30;87.80;;;;;;5031451;28;20034;-72
2021/06/06 04:15:53;;;;;;;10.80;7.03;;;19.50;86.70;;;;;;5028883;28;20131;-72
2021/06/06 04:18:21;;;;;;;12.55;7.53;;;19.90;85.00;;;;;;5023094;28;20569;-72
2021/06/06 04:20:49;;;;;;;8.38;6.68;;;20.30;84.90;;;;;;5025969;28;20026;-72
2021/06/06 04:23:16;;;;;;;10.77;6.95;;;20.70;82.00;;;;;;5029528;28;20033;-72
2021/06/06 04:25:42;;;;;;;10.15;6.93;;;20.80;81.70;;;;;;5031389;28;20033;-72
2021/06/06 04:28:09;;;;;;;11.40;7.45;;;21.00;80.80;;;;;;5028269;28;20383;-72
2021/06/06 04:30:36;;;;;;;9.55;6.53;;;21.10;82.60;;;;;;5028803;28;20017;-72
2021/06/06 04:33:07;;;;;;;12.77;7.10;;;21.10;82.20;;;;;;5028686;28;20378;-72
2021/06/06 04:35:34;;;;;;;8.60;7.25;;;21.40;81.70;;;;;;5029426;28;20025;-72
2021/06/06 04:37:59;;;;;;;9.70;6.68;;;21.70;79.90;;;;;;5029998;28;20025;-72
2021/06/06 04:40:25;;;;;;;8.52;6.85;;;21.70;81.10;;;;;;5029851;28;20381;-72
2021/06/06 04:42:50;;;;;;;8.55;6.30;;;21.90;79.30;;;;;;5027492;28;20080;-72
2021/06/06 04:45:16;;;;;;;8.82;6.28;;;22.00;79.30;;;;;;5028585;28;20033;-71
2021/06/06 04:47:42;;;;;;;8.13;6.32;;;22.00;79.00;;;;;;5028236;28;20123;-72
2021/06/06 04:50:11;;;;;;;10.23;6.70;;;22.00;78.70;;;;;;5029316;28;20056;-72
2021/06/06 04:52:37;;;;;;;9.20;6.10;;;21.70;79.70;;;;;;5032259;28;20430;-72
2021/06/06 04:55:14;;;;;;;7.57;6.30;;;21.00;81.30;;;;;;5027785;28;20026;-72
2021/06/06 04:57:40;;;;;;;9.55;6.32;;;20.40;85.00;;;;;;5028255;28;20030;-72
2021/06/06 05:00:13;;;;;;;8.93;6.50;;;19.80;86.70;;;;;;5027093;28;20021;-72
2021/06/06 05:02:38;;;;;;;9.30;6.97;;;19.30;90.00;;;;;;5025452;28;20663;-72
2021/06/06 05:05:08;;;;;;;9.73;6.28;;;19.00;90.70;;;;;;5028744;28;20037;-72
2021/06/06 05:07:33;;;;;;;9.23;6.10;;;18.70;91.60;;;;;;5029598;28;20018;-72
2021/06/06 05:09:59;;;;;;;12.50;6.45;;;18.40;91.90;;;;;;5024678;28;20401;-72
2021/06/06 05:12:25;;;;;;;10.02;6.53;;;18.20;92.20;;;;;;5025682;28;20033;-72
2021/06/06 05:14:51;;;;;;;12.40;6.63;;;18.10;92.60;;;;;;5023665;28;20072;-72
2021/06/06 05:17:16;;;;;;;8.85;5.95;;;18.00;93.00;;;;;;5025590;28;20026;-72
2021/06/06 05:19:42;;;;;;;9.10;6.63;;;18.00;93.10;;;;;;5030343;28;20530;-72
2021/06/06 05:22:08;;;;;;;9.50;6.18;;;17.90;93.80;;;;;;5025525;28;20486;-72
2021/06/06 05:24:34;;;;;;;8.45;5.60;;;17.90;93.70;;;;;;5023682;28;20038;-72
2021/06/06 05:26:59;;;;;;;11.15;5.68;;;17.80;93.80;;;;;;5026284;28;20029;-72
2021/06/06 05:29:25;;;;;;;7.00;6.20;;;17.80;93.60;;;;;;5025638;28;20034;-72
2021/06/06 05:31:51;;;;;;;8.40;5.80;;;17.90;94.00;;;;;;5030638;28;20033;-72
2021/06/06 05:34:17;;;;;;;11.75;6.25;;;17.90;94.30;;;;;;5025891;28;20087;-72
2021/06/06 05:36:44;;;;;;;8.45;5.22;;;17.90;93.90;;;;;;5025677;28;20021;-72
2021/06/06 05:39:09;;;;;;;9.45;6.00;;;18.00;93.50;;;;;;5026202;28;20142;-72
2021/06/06 05:41:36;;;;;;;9.82;5.80;;;18.00;93.60;;;;;;5027457;28;20168;-72
2021/06/06 05:44:02;;;;;;;9.90;5.68;;;18.10;94.10;;;;;;5030589;28;20025;-72
2021/06/06 05:46:28;;;;;;;7.55;5.13;;;18.20;94.70;;;;;;5028023;28;20113;-72
2021/06/06 05:48:54;;;;;;;11.75;5.13;;;18.30;94.40;;;;;;5028152;28;20112;-72
2021/06/06 05:51:20;;;;;;;9.07;4.80;;;18.40;92.80;;;;;;5028799;28;20094;-72
2021/06/06 05:53:46;;;;;;;8.63;5.40;;;18.50;93.10;;;;;;5027077;28;20022;-72
2021/06/06 05:56:12;;;;;;;7.55;4.93;;;18.50;92.70;;;;;;5029919;28;20040;-72
2021/06/06 05:58:39;;;;;;;6.88;4.78;;;18.60;93.00;;;;;;5030621;28;20097;-72
2021/06/06 06:01:06;;;;;;;8.70;5.13;;;18.70;93.40;;;;;;5031355;28;20022;-71
2021/06/06 06:03:32;;;;;;;7.00;5.05;;;18.80;92.60;;;;;;5030613;28;20068;-72
2021/06/06 06:05:58;;;;;;;6.93;5.22;;;18.80;92.50;;;;;;5031115;28;20018;-72
2021/06/06 06:08:36;;;;;;;7.75;4.78;;;18.80;92.70;;;;;;5030913;28;20458;-72
2021/06/06 06:11:06;;;;;;;6.90;4.25;;;18.90;92.30;;;;;;5031716;28;20029;-72
2021/06/06 06:13:33;;;;;;;7.43;4.22;;;19.00;91.40;;;;;;5034417;28;20048;-72
2021/06/06 06:16:00;;;;;;;12.30;4.60;;;19.10;91.90;;;;;;5031001;28;20037;-72
2021/06/06 06:18:29;;;;;;;9.55;4.85;;;19.20;91.80;;;;;;5029864;28;20559;-72
2021/06/06 06:20:55;;;;;;;5.78;4.55;;;19.30;92.50;;;;;;5030739;28;20025;-71
2021/06/06 06:23:21;;;;;;;8.77;4.93;;;19.30;92.10;;;;;;5031731;28;20385;-71
2021/06/06 06:25:48;;;;;;;7.88;4.25;;;19.40;91.90;;;;;;5030419;28;20038;-71
2021/06/06 06:28:14;;;;;;;6.70;4.38;;;19.50;92.80;;;;;;5030570;28;20030;-71
2021/06/06 06:30:40;;;;;;;5.85;4.40;;;19.60;90.40;;;;;;5030994;28;20547;-72
2021/06/06 06:33:07;;;;;;;5.95;3.92;;;19.60;91.00;;;;;;5030621;28;20039;-72
2021/06/06 06:35:35;;;;;;;11.00;4.55;;;19.70;90.70;;;;;;5030979;28;20030;-72
2021/06/06 06:38:02;;;;;;;7.95;5.13;;;19.80;90.90;;;;;;5031798;28;20332;-72
2021/06/06 06:40:28;;;;;;;10.32;4.63;;;19.90;90.00;;;;;;5032718;28;20030;-72
2021/06/06 06:42:55;;;;;;;7.15;4.03;;;19.90;90.30;;;;;;5030362;28;20043;-72
2021/06/06 06:45:24;;;;;;;9.20;3.88;;;20.00;91.00;;;;;;5031021;28;20025;-73
2021/06/06 06:47:50;;;;;;;5.38;4.10;;;20.10;90.80;;;;;;5028428;28;20068;-72
2021/06/06 06:50:17;;;;;;;5.90;4.00;;;20.20;90.20;;;;;;5029416;28;20062;-72
2021/06/06 06:52:43;;;;;;;6.47;3.92;;;20.20;90.00;;;;;;5030880;28;20032;-72
2021/06/06 06:55:18;;;;;;;5.65;3.92;;;20.30;89.20;;;;;;5030871;28;20037;-73
2021/06/06 06:57:44;;;;;;;7.90;3.42;;;20.40;89.40;;;;;;5031428;28;20439;-73
2021/06/06 07:00:23;;;;;;;3.85;3.45;;;20.40;89.80;;;;;;5030085;28;20025;-72
2021/06/06 07:02:49;;;;;;;6.77;3.93;;;20.50;90.00;;;;;;5031170;28;20032;-72
2021/06/06 07:05:15;;;;;;;6.93;3.78;;;20.60;89.90;;;;;;5028081;28;20049;-72
2021/06/06 07:07:41;;;;;;;15.20;3.72;;;20.60;89.90;;;;;;5031879;28;20032;-73
2021/06/06 07:10:11;;;;;;;5.60;4.30;;;20.70;89.60;;;;;;5026006;28;20021;-73
2021/06/06 07:12:38;;;;;;;5.32;3.70;;;20.70;89.90;;;;;;5025532;28;20032;-72
2021/06/06 07:15:09;;;;;;;5.82;3.25;;;20.80;88.70;;;;;;5027355;28;20029;-73
2021/06/06 07:17:35;;;;;;;7.55;2.83;;;20.90;84.80;;;;;;5027763;28;20105;-73
2021/06/06 07:20:02;;;;;;;7.90;3.47;;;21.00;83.50;;;;;;5028734;28;20057;-72
2021/06/06 07:22:28;;;;;;;5.00;4.00;;;21.00;84.50;;;;;;5029630;28;20042;-72
2021/06/06 07:24:53;;;;;;;7.90;3.88;;;21.10;86.70;;;;;;5029292;28;20043;-73
2021/06/06 07:27:19;;;;;;;6.15;4.15;;;21.20;85.80;;;;;;5027438;28;20029;-73
2021/06/06 07:29:45;;;;;;;13.60;8.02;;;21.20;85.50;;;;;;5027502;28;20029;-72
2021/06/06 07:32:11;;;;;;;11.70;6.78;;;21.30;86.20;;;;;;5028803;28;20492;-72
2021/06/06 07:34:37;;;;;;;5.93;3.45;;;21.30;87.80;;;;;;5030583;28;20678;-72
2021/06/06 07:37:06;;;;;;;8.63;3.03;;;21.40;84.60;;;;;;5026562;28;20040;-72
2021/06/06 07:39:32;;;;;;;4.77;2.33;;;21.50;82.20;;;;;;5026586;28;20481;-72
2021/06/06 07:41:59;;;;;;;6.07;3.03;;;21.60;82.80;;;;;;5029614;28;20036;-72
2021/06/06 07:44:25;;;;;;;6.10;2.63;;;21.70;81.00;;;;;;5029227;28;20506;-72
2021/06/06 07:46:52;;;;;;;3.75;2.97;;;21.80;80.80;;;;;;5031707;28;20032;-72
2021/06/06 07:49:18;;;;;;;9.43;3.20;;;21.80;82.00;;;;;;5028718;28;20038;-72
2021/06/06 07:51:44;;;;;;;5.82;3.00;;;21.80;80.40;;;;;;5028283;28;20120;-72
2021/06/06 07:54:10;;;;;;;8.40;2.88;;;21.90;79.80;;;;;;5029259;28;20052;-72
2021/06/06 07:56:36;;;;;;;4.90;2.22;;;22.00;83.20;;;;;;5029450;28;20107;-72
2021/06/06 07:59:04;;;;;;;5.13;2.20;;;22.00;78.80;;;;;;5031408;28;20025;-72
2021/06/06 08:01:30;;;;;;;6.82;2.15;;;22.10;76.10;;;;;;5030589;28;20036;-72
2021/06/06 08:03:56;;;;;;;5.45;2.05;;;22.00;75.40;;;;;;5029028;28;20037;-72
2021/06/06 08:06:22;;;;;;;28.25;19.88;;;22.00;74.70;;;;;;5027536;28;20024;-72
2021/06/06 08:08:48;;;;;;;4.95;1.80;;;22.00;74.00;;;;;;5028773;28;20136;-72
2021/06/06 08:11:14;;;;;;;5.35;1.65;;;22.20;73.70;;;;;;5030389;28;20128;-72
2021/06/06 08:13:40;;;;;;;8.10;2.30;;;22.30;72.40;;;;;;5030509;28;20025;-72
2021/06/06 08:16:07;;;;;;;5.13;1.98;;;22.30;72.00;;;;;;5027852;28;20048;-72
2021/06/06 08:18:37;;;;;;;4.78;2.42;;;22.30;73.10;;;;;;5028214;28;20033;-72
2021/06/06 08:21:02;;;;;;;5.40;2.47;;;22.30;74.30;;;;;;5028042;28;20036;-72
2021/06/06 08:23:28;;;;;;;2.70;1.90;;;22.40;74.50;;;;;;5028088;28;20046;-72
2021/06/06 08:25:56;;;;;;;5.93;2.38;;;22.50;71.80;;;;;;5032175;28;20037;-72
2021/06/06 08:28:22;;;;;;;5.95;2.13;;;22.50;71.40;;;;;;5028805;28;20033;-73
2021/06/06 08:30:54;;;;;;;3.17;1.92;;;22.70;71.40;;;;;;5028599;28;20103;-73
2021/06/06 08:33:23;;;;;;;4.45;1.73;;;22.80;72.70;;;;;;5028751;28;20029;-72
2021/06/06 08:35:51;;;;;;;3.50;1.83;;;22.90;73.20;;;;;;5028818;28;20040;-72
2021/06/06 08:38:18;;;;;;;5.80;1.98;;;23.10;70.50;;;;;;5029313;28;20029;-72
2021/06/06 08:41:01;;;;;;;1.92;1.45;;;23.20;70.50;;;;;;5031112;28;20026;-72
2021/06/06 08:43:51;;;;;;;4.65;1.55;;;23.20;67.20;;;;;;5036802;28;20033;-72
2021/06/06 08:46:20;;;;;;;4.30;1.33;;;23.30;66.10;;;;;;5030633;28;20081;-72
2021/06/06 08:48:47;;;;;;;4.60;1.60;;;23.50;65.90;;;;;;5028011;28;20034;-72
2021/06/06 08:51:47;;;;;;;5.40;1.45;;;23.60;66.60;;;;;;5028576;28;20028;-72
2021/06/06 08:54:34;;;;;;;8.30;2.10;;;23.80;65.30;;;;;;5028250;28;20048;-72
2021/06/06 08:57:23;;;;;;;4.10;1.65;;;24.10;69.30;;;;;;5028236;28;20063;-72
2021/06/06 08:59:53;;;;;;;5.65;1.85;;;24.30;65.30;;;;;;4971203;28;20078;-72
2021/06/06 09:02:34;;;;;;;5.35;1.77;;;24.40;64.00;;;;;;4971059;28;20421;-73
2021/06/06 09:05:07;;;;;;;23.67;17.77;;;24.30;64.80;;;;;;4967182;28;20057;-72
2021/06/06 09:07:43;;;;;;;10.10;6.00;;;24.10;65.70;;;;;;4968783;28;20035;-73
2021/06/06 09:10:19;;;;;;;3.63;2.17;;;24.00;66.00;;;;;;4969074;28;20054;-72
2021/06/06 09:12:45;;;;;;;6.70;1.95;;;24.00;66.10;;;;;;4968521;28;20031;-73
2021/06/06 09:15:15;;;;;;;4.13;1.98;;;23.90;65.60;;;;;;4969139;28;20042;-72
2021/06/06 09:17:42;;;;;;;5.15;1.10;;;23.90;65.90;;;;;;4968527;28;20045;-72
2021/06/06 09:20:33;;;;;;;6.47;3.47;;;23.70;61.70;;;;;;4968913;28;20526;-73
2021/06/06 09:23:07;;;;;;;5.55;1.40;;;23.60;62.20;;;;;;4967852;28;20050;-73
2021/06/06 09:25:37;;;;;;;6.38;1.60;;;23.60;62.30;;;;;;4967347;28;20138;-73
2021/06/06 09:28:02;;;;;;;6.97;1.67;;;23.50;61.80;;;;;;4965656;28;20027;-72
2021/06/06 09:30:28;;;;;;;6.35;1.73;;;23.70;62.70;;;;;;4968912;28;20049;-72
2021/06/06 09:33:26;;;;;;;4.63;1.60;;;23.80;63.50;;;;;;4962373;28;20102;-73
2021/06/06 09:36:05;;;;;;;3.30;1.67;;;24.00;64.40;;;;;;4961696;28;20098;-76
2021/06/06 09:38:30;;;;;;;5.95;1.55;;;24.10;62.10;;;;;;5017679;28;20436;-72
2021/06/06 09:41:14;;;;;;;6.05;1.40;;;24.20;63.10;;;;;;5033266;28;20034;-72
2021/06/06 09:43:41;;;;;;;4.82;1.88;;;24.20;63.30;;;;;;5030442;28;20029;-72
2021/06/06 09:46:19;;;;;;;11.60;2.45;;;24.30;64.60;;;;;;5025466;28;20029;-72
2021/06/06 09:48:45;;;;;;;7.15;1.42;;;24.20;64.30;;;;;;5032016;28;20033;-72
2021/06/06 09:51:23;;;;;;;5.88;1.75;;;24.20;60.90;;;;;;5026689;28;20032;-72
2021/06/06 09:53:50;;;;;;;2.85;1.63;;;24.40;63.00;;;;;;5032282;28;20557;-73
2021/06/06 09:56:25;;;;;;;4.97;1.42;;;24.50;61.80;;;;;;5025544;28;20486;-73
2021/06/06 09:58:53;;;;;;;3.55;1.30;;;24.50;60.70;;;;;;5033201;28;20025;-72
2021/06/06 10:01:34;;;;;;;3.38;1.33;;;24.30;58.60;;;;;;5027775;28;20033;-72
2021/06/06 10:04:07;;;;;;;4.60;1.58;;;24.30;58.50;;;;;;5027473;28;20045;-72
2021/06/06 10:06:41;;;;;;;8.10;5.53;;;24.50;59.70;;;;;;5029564;28;20478;-72
2021/06/06 10:09:12;;;;;;;4.10;1.75;;;24.60;60.00;;;;;;5027826;28;20075;-73
2021/06/06 10:11:53;;;;;;;30.83;25.38;;;24.80;60.10;;;;;;5028867;28;20026;-72
2021/06/06 10:14:28;;;;;;;3.55;1.58;;;24.80;58.60;;;;;;5029077;28;20025;-75
2021/06/06 10:16:57;;;;;;;6.90;1.35;;;24.60;60.50;;;;;;5028939;28;20463;-72
2021/06/06 10:19:30;;;;;;;5.63;1.55;;;24.50;60.70;;;;;;5029667;28;20025;-73
2021/06/06 10:22:02;;;;;;;4.20;1.95;;;24.50;61.60;;;;;;5027746;28;20544;-73
2021/06/06 10:24:57;;;;;;;6.53;1.48;;;24.40;59.20;;;;;;5030367;28;20037;-73
2021/06/06 10:27:36;;;;;;;6.60;1.67;;;24.30;59.40;;;;;;5027769;28;20549;-73
2021/06/06 10:30:07;;;;;;;5.97;1.63;;;24.40;60.50;;;;;;5026869;28;20408;-73
2021/06/06 10:32:43;;;;;;;3.25;1.35;;;24.50;61.80;;;;;;5027813;28;20022;-73
2021/06/06 10:35:16;;;;;;;6.82;1.70;;;24.60;60.40;;;;;;5029103;28;20057;-73
2021/06/06 10:37:47;;;;;;;6.88;1.95;;;24.30;59.30;;;;;;5030540;28;20029;-73
2021/06/06 10:40:34;;;;;;;3.63;1.60;;;24.20;60.60;;;;;;5027841;28;20541;-73
2021/06/06 10:43:15;;;;;;;7.40;1.73;;;24.00;60.90;;;;;;5027510;28;20029;-73
2021/06/06 10:46:13;;;;;;;8.40;3.80;;;24.10;61.30;;;;;;5025606;28;20033;-73
2021/06/06 10:48:46;;;;;;;44.13;39.35;;;24.00;60.60;;;;;;4999026;28;20049;-73
2021/06/06 10:51:24;;;;;;;4.60;2.28;;;24.10;62.90;;;;;;5006734;28;20129;-72
2021/06/06 10:53:59;;;;;;;4.43;1.50;;;24.20;62.90;;;;;;5018675;28;20025;-72
2021/06/06 10:56:47;;;;;;;3.92;1.58;;;24.40;62.60;;;;;;5020849;28;20027;-72
2021/06/06 10:59:14;;;;;;;4.47;1.70;;;24.50;63.80;;;;;;5025504;28;20576;-72
2021/06/06 11:01:42;;;;;;;2.90;1.60;;;24.50;62.60;;;;;;5023337;28;20037;-72
2021/06/06 11:04:16;;;;;;;2.65;1.52;;;24.30;59.70;;;;;;5021515;28;20080;-72
2021/06/06 11:06:47;;;;;;;2.58;1.52;;;24.10;60.90;;;;;;5017161;28;20025;-72
2021/06/06 11:09:24;;;;;;;4.88;1.73;;;23.90;60.30;;;;;;5017457;28;20034;-73
2021/06/06 11:12:01;;;;;;;4.13;1.20;;;23.80;61.30;;;;;;5024028;28;20112;-73
2021/06/06 11:14:45;;;;;;;3.42;1.58;;;23.80;62.40;;;;;;5018880;28;20025;-73
2021/06/06 11:17:29;;;;;;;6.32;1.80;;;23.80;61.50;;;;;;5025077;28;20034;-72
2021/06/06 11:20:11;;;;;;;3.47;1.65;;;23.70;60.60;;;;;;5022541;28;20603;-72
2021/06/06 11:22:41;;;;;;;3.47;1.40;;;23.80;61.30;;;;;;5025957;28;20136;-72
2021/06/06 11:25:30;;;;;;;6.60;1.75;;;24.00;60.60;;;;;;5020666;28;20042;-73
2021/06/06 11:28:01;;;;;;;2.88;1.63;;;24.20;59.00;;;;;;5015088;28;20076;-72
2021/06/06 11:30:32;;;;;;;6.57;1.77;;;24.30;61.00;;;;;;5025208;28;20045;-72
2021/06/06 11:33:00;;;;;;;3.47;1.90;;;24.30;59.80;;;;;;5013672;28;20091;-73
2021/06/06 11:35:35;;;;;;;2.88;1.45;;;24.30;63.90;;;;;;5021397;28;20454;-72
2021/06/06 11:38:25;;;;;;;5.75;1.48;;;24.40;60.20;;;;;;5017513;28;20057;-72
2021/06/06 11:41:11;;;;;;;3.25;1.25;;;24.70;62.70;;;;;;5027601;28;20025;-72
2021/06/06 11:43:45;;;;;;;2.55;1.30;;;24.80;58.00;;;;;;5029310;28;20038;-72
2021/06/06 11:46:21;;;;;;;4.38;1.63;;;25.00;59.10;;;;;;5021133;28;20609;-72
2021/06/06 11:49:16;;;;;;;8.00;1.60;;;25.00;59.60;;;;;;5022754;28;20052;-72
2021/06/06 11:51:46;;;;;;;2.75;1.27;;;24.90;58.40;;;;;;5010280;28;20466;-72
2021/06/06 11:54:18;;;;;;;4.07;1.65;;;24.90;58.80;;;;;;5022255;28;20514;-73
2021/06/06 11:56:45;;;;;;;7.20;1.55;;;24.90;58.40;;;;;;5023756;28;20121;-72
2021/06/06 11:59:33;;;;;;;3.00;1.52;;;24.90;57.80;;;;;;5026851;28;20045;-72
2021/06/06 12:02:08;;;;;;;4.65;1.77;;;24.80;60.10;;;;;;5025931;28;20389;-72
2021/06/06 12:04:36;;;;;;;5.93;1.88;;;24.90;57.10;;;;;;5028687;28;20068;-73
2021/06/06 12:07:31;;;;;;;3.78;1.48;;;25.10;57.70;;;;;;5028547;28;20021;-73
2021/06/06 12:10:00;;;;;;;5.22;1.67;;;25.30;55.60;;;;;;5013113;28;20065;-73
2021/06/06 12:12:30;;;;;;;2.87;1.40;;;25.40;56.80;;;;;;5028138;28;20382;-72
2021/06/06 12:15:20;;;;;;;3.13;1.38;;;25.30;57.50;;;;;;5028580;28;20029;-73
2021/06/06 12:17:47;;;;;;;2.90;1.45;;;25.30;57.10;;;;;;5015721;28;20084;-73
2021/06/06 12:20:19;;;;;;;2.35;1.17;;;25.20;57.30;;;;;;5029030;28;20116;-72
2021/06/06 12:22:44;;;;;;;3.65;1.70;;;25.30;58.80;;;;;;5031339;28;20057;-72
2021/06/06 12:25:17;;;;;;;2.95;1.48;;;25.30;58.00;;;;;;5027951;28;20444;-72
2021/06/06 12:28:18;;;;;;;3.00;1.25;;;25.20;55.80;;;;;;5028308;28;20057;-72
2021/06/06 12:30:49;;;;;;;3.25;1.50;;;25.20;57.40;;;;;;5025186;28;20136;-72
2021/06/06 12:33:37;;;;;;;2.88;1.27;;;24.90;57.50;;;;;;5027299;28;20052;-73
2021/06/06 12:36:19;;;;;;;2.42;1.50;;;24.90;58.30;;;;;;5028369;28;20025;-73
2021/06/06 12:38:46;;;;;;;9.70;1.77;;;24.90;57.80;;;;;;5020156;28;20033;-73
2021/06/06 12:41:12;;;;;;;4.10;1.25;;;24.90;57.60;;;;;;5024733;28;20052;-73
2021/06/06 12:43:49;;;;;;;5.05;1.58;;;24.90;57.20;;;;;;5021127;28;20038;-73
2021/06/06 12:46:15;;;;;;;5.78;1.63;;;25.00;58.60;;;;;;5019799;28;20552;-73
2021/06/06 12:49:13;;;;;;;5.68;1.90;;;25.10;57.90;;;;;;5023092;28;20498;-73
2021/06/06 12:51:47;;;;;;;3.78;1.52;;;25.10;57.70;;;;;;4960365;28;20066;-73
2021/06/06 12:54:15;;;;;;;7.72;1.63;;;24.90;57.50;;;;;;4967859;28;20048;-73
2021/06/06 12:56:41;;;;;;;4.65;1.35;;;24.90;58.20;;;;;;4968806;28;20030;-73
2021/06/06 12:59:13;;;;;;;3.15;1.40;;;24.80;57.50;;;;;;4968593;28;20109;-72
2021/06/06 13:01:39;;;;;;;4.18;1.50;;;24.90;57.40;;;;;;4962158;28;20479;-73
2021/06/06 13:04:18;;;;;;;2.28;1.38;;;25.00;58.70;;;;;;4966686;28;20051;-73